Portada
METAR-TAF:

METAR-TAF

Aeroports :

Massena, Nova York, Estats Units d'Amèrica

latitud: 44-56-09N, longitud: 074-50-44W, altitud: 66 m

Observació

L'informe es va fer fa 48 minuts, a les 23:53 UTC
Vent 10 kt del Oest
Temperatura 14°C
Humitat 63%
Pressió 1021 hPa
Visibilitat: 16.1 km
Escasses núvols a una alçada de 4300 ft

METAR: KMSS 212353Z AUTO 26010KT 10SM FEW043 14/07 A3016 RMK AO2 SLP217 60000 T01390072 10200 20139 53040

Hora: 20:41 (00:41 UTC)

Pronòstic

L'informe es va fer fa 1 hora i 17 minuts, a les 23:24 UTC
Pronòstic vàlid del 22 a les 00 UTC al 22 a les 24 UTC
Vent 7 kt del Sud-Oest amb ràfegues de 16 kt
Visibilitat: 10 km
Núvols disperses a una alçada de 10000 ft
A partir de les 22 a les 0200 UTC
Vent 5 kt del Oest/Sud-Oest
Visibilitat: 10 km
Cel ennuvolat a una alçada de 6000 ft

TAF: KMSS 212324Z 2200/2224 23007G16KT P6SM SCT100 FM220200 24005KT P6SM BKN060

Observacions i pronòstics meteorològics de més de 4000 aeroports (METAR i TAF).

Les estacions disponibles són els punts grocs i vermells al mapa.

Posi el ratolí al punt desitjat per veure el nom de l'estació.

Feu clic per veure les observacions i els pronòstics meteorològics.

Per canviar el mapa: feu clic els botons verds amb una creu de color negre per apropar; al botó verd amb un guió per allunyar la imatge; o en les fletxes verdes per a mapes adjacents.


METAR-TAF: